Time,TemperatureF,DewpointF,PressureIn,WindDirection,WindDirectionDegrees,WindSpeedMPH,WindSpeedGustMPH,Humidity,HourlyPrecipIn,Conditions,Clouds,dailyrainin,SoftwareType,DateUTC
2013-01-01 00:02:00,55.2,54.0,29.99,NNW,329,0.0,6.0,96,0.05,,,0.00,weatherlink.com 1.10,2013-01-01 06:02:00,
2013-01-01 00:17:00,55.0,54.0,29.99,NNW,329,0.0,3.0,96,0.09,,,0.05,weatherlink.com 1.10,2013-01-01 06:17:00,
2013-01-01 00:32:00,54.9,54.0,29.99,NNW,329,0.0,4.0,96,0.10,,,0.09,weatherlink.com 1.10,2013-01-01 06:32:00,
2013-01-01 00:47:00,54.8,54.0,29.99,NNW,329,0.0,5.0,96,0.13,,,0.12,weatherlink.com 1.10,2013-01-01 06:47:00,
2013-01-01 01:02:00,54.7,54.0,30.00,NNW,329,0.0,1.0,96,0.13,,,0.13,weatherlink.com 1.10,2013-01-01 07:02:00,
2013-01-01 01:17:00,54.6,54.0,29.98,NNW,329,2.0,4.0,96,0.08,,,0.13,weatherlink.com 1.10,2013-01-01 07:17:00,
2013-01-01 01:32:00,54.7,54.0,29.99,NNW,329,3.0,5.0,96,0.04,,,0.13,weatherlink.com 1.10,2013-01-01 07:32:00,
2013-01-01 01:47:00,54.6,54.0,30.01,NNW,329,1.0,4.0,96,0.01,,,0.13,weatherlink.com 1.10,2013-01-01 07:47:00,
2013-01-01 02:02:00,54.6,54.0,30.00,NNW,330,2.0,4.0,96,0.01,,,0.14,weatherlink.com 1.10,2013-01-01 08:02:00,
2013-01-01 02:17:00,54.4,53.0,30.01,NNW,332,2.0,4.0,96,0.01,,,0.14,weatherlink.com 1.10,2013-01-01 08:17:00,
2013-01-01 02:32:00,54.2,53.0,30.00,NNW,342,0.0,4.0,96,0.01,,,0.14,weatherlink.com 1.10,2013-01-01 08:32:00,
2013-01-01 02:47:00,54.0,53.0,30.00,NNW,336,3.0,6.0,96,0.01,,,0.14,weatherlink.com 1.10,2013-01-01 08:47:00,
2013-01-01 03:02:00,53.6,53.0,30.01,North,355,1.0,7.0,96,0.00,,,0.14,weatherlink.com 1.10,2013-01-01 09:02:00,
2013-01-01 03:17:00,53.3,52.0,30.01,NNW,346,1.0,6.0,95,0.00,,,0.14,weatherlink.com 1.10,2013-01-01 09:17:00,
2013-01-01 03:33:00,53.1,52.0,30.01,NW,325,2.0,5.0,95,0.00,,,0.14,weatherlink.com 1.10,2013-01-01 09:33:00,
2013-01-01 03:47:00,52.9,52.0,30.01,NNW,332,2.0,4.0,95,0.00,,,0.14,weatherlink.com 1.10,2013-01-01 09:47:00,
2013-01-01 04:02:00,52.7,51.0,30.01,NNW,332,0.0,3.0,95,0.00,,,0.14,weatherlink.com 1.10,2013-01-01 10:02:00,
2013-01-01 04:33:00,52.0,51.0,29.99,NNW,340,1.0,3.0,95,0.00,,,0.14,weatherlink.com 1.10,2013-01-01 10:33:00,
2013-01-01 04:47:00,51.8,51.0,30.00,NNW,340,0.0,3.0,95,0.00,,,0.14,weatherlink.com 1.10,2013-01-01 10:47:00,
2013-01-01 05:03:00,51.5,50.0,29.99,NNW,343,3.0,3.0,95,0.00,,,0.14,weatherlink.com 1.10,2013-01-01 11:03:00,
2013-01-01 05:18:00,51.5,50.0,30.00,NNW,343,1.0,3.0,95,0.00,,,0.14,weatherlink.com 1.10,2013-01-01 11:18:00,
2013-01-01 05:33:00,51.4,50.0,30.00,NNW,330,1.0,5.0,95,0.00,,,0.14,weatherlink.com 1.10,2013-01-01 11:33:00,
2013-01-01 05:48:00,51.4,50.0,30.00,NNW,330,1.0,3.0,95,0.00,,,0.14,weatherlink.com 1.10,2013-01-01 11:48:00,
2013-01-01 06:03:00,51.3,50.0,30.00,NNW,330,2.0,3.0,95,0.00,,,0.14,weatherlink.com 1.10,2013-01-01 12:03:00,
2013-01-01 06:18:00,51.3,50.0,30.02,NNW,330,1.0,3.0,95,0.00,,,0.14,weatherlink.com 1.10,2013-01-01 12:18:00,
2013-01-01 06:33:00,51.3,50.0,30.03,NNW,330,0.0,3.0,95,0.00,,,0.14,weatherlink.com 1.10,2013-01-01 12:33:00,
2013-01-01 06:48:00,51.1,50.0,30.02,NNW,329,3.0,4.0,95,0.00,,,0.14,weatherlink.com 1.10,2013-01-01 12:48:00,
2013-01-01 07:03:00,51.0,50.0,30.03,NNW,336,1.0,5.0,95,0.00,,,0.14,weatherlink.com 1.10,2013-01-01 13:03:00,
2013-01-01 07:18:00,50.8,50.0,30.05,NNW,334,0.0,2.0,95,0.00,,,0.14,weatherlink.com 1.10,2013-01-01 13:18:00,
2013-01-01 07:33:00,50.7,49.0,30.07,NNW,344,0.0,6.0,95,0.00,,,0.14,weatherlink.com 1.10,2013-01-01 13:33:00,
2013-01-01 07:48:00,50.4,49.0,30.09,NNW,337,4.0,4.0,95,0.00,,,0.14,weatherlink.com 1.10,2013-01-01 13:48:00,
2013-01-01 08:03:00,50.2,49.0,30.09,NNW,329,2.0,3.0,95,0.01,,,0.15,weatherlink.com 1.10,2013-01-01 14:03:00,
2013-01-01 08:18:00,50.0,49.0,30.08,NNW,329,2.0,4.0,95,0.01,,,0.15,weatherlink.com 1.10,2013-01-01 14:18:00,
2013-01-01 08:33:00,49.9,49.0,30.09,NNW,336,4.0,5.0,95,0.01,,,0.15,weatherlink.com 1.10,2013-01-01 14:33:00,
2013-01-01 08:48:00,49.8,49.0,30.10,NNW,336,1.0,3.0,95,0.01,,,0.15,weatherlink.com 1.10,2013-01-01 14:48:00,
2013-01-01 09:03:00,49.6,48.0,30.11,NNW,336,0.0,3.0,94,0.00,,,0.15,weatherlink.com 1.10,2013-01-01 15:03:00,
2013-01-01 09:18:00,49.5,48.0,30.11,NNW,336,2.0,4.0,94,0.00,,,0.15,weatherlink.com 1.10,2013-01-01 15:18:00,
2013-01-01 09:33:00,49.3,48.0,30.11,NNW,335,1.0,4.0,94,0.00,,,0.15,weatherlink.com 1.10,2013-01-01 15:33:00,
2013-01-01 09:48:00,49.2,48.0,30.13,NNW,329,1.0,2.0,94,0.00,,,0.15,weatherlink.com 1.10,2013-01-01 15:48:00,
2013-01-01 10:03:00,49.1,48.0,30.12,NNW,331,3.0,6.0,94,0.00,,,0.15,weatherlink.com 1.10,2013-01-01 16:03:00,
2013-01-01 10:18:00,48.9,47.0,30.13,NNW,336,1.0,6.0,93,0.00,,,0.15,weatherlink.com 1.10,2013-01-01 16:18:00,
2013-01-01 10:33:00,48.6,47.0,30.14,NW,326,2.0,7.0,93,0.00,,,0.15,weatherlink.com 1.10,2013-01-01 16:33:00,
2013-01-01 10:48:00,48.4,47.0,30.14,NNW,342,5.0,7.0,93,0.00,,,0.15,weatherlink.com 1.10,2013-01-01 16:48:00,
2013-01-01 11:03:00,48.4,46.0,30.14,North,355,2.0,7.0,92,0.00,,,0.15,weatherlink.com 1.10,2013-01-01 17:03:00,
2013-01-01 11:18:00,48.8,47.0,30.13,NNW,344,2.0,6.0,92,0.00,,,0.15,weatherlink.com 1.10,2013-01-01 17:18:00,
2013-01-01 11:33:00,49.1,47.0,30.13,NNW,328,4.0,6.0,91,0.00,,,0.15,weatherlink.com 1.10,2013-01-01 17:33:00,
2013-01-01 11:48:00,49.1,47.0,30.12,NNW,327,0.0,3.0,91,0.00,,,0.15,weatherlink.com 1.10,2013-01-01 17:48:00,
2013-01-01 12:03:00,49.3,47.0,30.11,NNW,335,3.0,4.0,90,0.00,,,0.15,weatherlink.com 1.10,2013-01-01 18:03:00,
2013-01-01 12:18:00,49.2,46.0,30.09,NNW,344,2.0,7.0,89,0.00,,,0.15,weatherlink.com 1.10,2013-01-01 18:18:00,
2013-01-01 12:33:00,50.0,47.0,30.08,NNE,28,2.0,4.0,89,0.00,,,0.15,weatherlink.com 1.10,2013-01-01 18:33:00,
2013-01-01 12:48:00,50.3,47.0,30.09,NNW,328,2.0,5.0,88,0.00,,,0.15,weatherlink.com 1.10,2013-01-01 18:48:00,
2013-01-01 13:03:00,50.3,47.0,30.09,NNW,328,0.0,3.0,88,0.00,,,0.15,weatherlink.com 1.10,2013-01-01 19:03:00,
2013-01-01 13:18:00,50.5,47.0,30.09,NW,325,0.0,3.0,89,0.00,,,0.15,weatherlink.com 1.10,2013-01-01 19:18:00,
2013-01-01 13:33:00,50.8,47.0,30.09,NNW,331,1.0,3.0,87,0.00,,,0.15,weatherlink.com 1.10,2013-01-01 19:33:00,
2013-01-01 13:48:00,50.9,48.0,30.09,West,271,4.0,4.0,88,0.00,,,0.15,weatherlink.com 1.10,2013-01-01 19:48:00,
2013-01-01 14:03:00,51.0,48.0,30.09,NNW,333,2.0,4.0,88,0.00,,,0.15,weatherlink.com 1.10,2013-01-01 20:03:00,
2013-01-01 14:18:00,51.1,47.0,30.10,NNW,342,2.0,4.0,86,0.00,,,0.15,weatherlink.com 1.10,2013-01-01 20:18:00,
2013-01-01 14:33:00,51.4,47.0,30.10,NW,325,0.0,3.0,84,0.00,,,0.15,weatherlink.com 1.10,2013-01-01 20:33:00,
2013-01-01 14:48:00,51.0,47.0,30.10,NNW,342,1.0,6.0,85,0.00,,,0.15,weatherlink.com 1.10,2013-01-01 20:48:00,
2013-01-01 15:03:00,50.6,46.0,30.10,NNW,340,2.0,7.0,84,0.00,,,0.15,weatherlink.com 1.10,2013-01-01 21:03:00,
2013-01-01 15:18:00,50.3,46.0,30.11,NNW,333,3.0,6.0,85,0.00,,,0.15,weatherlink.com 1.10,2013-01-01 21:18:00,
2013-01-01 15:33:00,50.2,45.0,30.12,NNW,329,1.0,5.0,83,0.00,,,0.15,weatherlink.com 1.10,2013-01-01 21:33:00,
2013-01-01 15:48:00,50.4,46.0,30.11,NW,309,1.0,4.0,85,0.00,,,0.15,weatherlink.com 1.10,2013-01-01 21:48:00,
2013-01-01 16:03:00,49.9,46.0,30.12,NW,313,0.0,5.0,85,0.00,,,0.15,weatherlink.com 1.10,2013-01-01 22:03:00,
2013-01-01 16:18:00,49.7,46.0,30.12,NNW,340,3.0,5.0,86,0.00,,,0.15,weatherlink.com 1.10,2013-01-01 22:18:00,
2013-01-01 16:33:00,49.2,45.0,30.13,NNW,338,3.0,5.0,86,0.00,,,0.15,weatherlink.com 1.10,2013-01-01 22:33:00,
2013-01-01 16:48:00,48.4,44.0,30.14,NNW,335,2.0,6.0,86,0.00,,,0.15,weatherlink.com 1.10,2013-01-01 22:48:00,
2013-01-01 17:03:00,48.0,44.0,30.15,NNW,337,0.0,8.0,87,0.00,,,0.15,weatherlink.com 1.10,2013-01-01 23:03:00,
2013-01-01 17:18:00,47.7,44.0,30.16,NW,323,2.0,7.0,86,0.00,,,0.15,weatherlink.com 1.10,2013-01-01 23:18:00,
2013-01-01 17:33:00,47.6,44.0,30.16,NNW,334,2.0,6.0,86,0.00,,,0.15,weatherlink.com 1.10,2013-01-01 23:33:00,
2013-01-01 17:49:00,47.4,43.0,30.16,NW,325,0.0,6.0,86,0.00,,,0.15,weatherlink.com 1.10,2013-01-01 23:49:00,
2013-01-01 18:04:00,47.2,43.0,30.17,NNW,331,2.0,5.0,86,0.00,,,0.15,weatherlink.com 1.10,2013-01-02 00:04:00,
2013-01-01 18:19:00,47.0,43.0,30.16,NNW,331,0.0,5.0,86,0.00,,,0.15,weatherlink.com 1.10,2013-01-02 00:19:00,
2013-01-01 18:34:00,46.8,43.0,30.17,NNW,337,0.0,5.0,87,0.00,,,0.15,weatherlink.com 1.10,2013-01-02 00:34:00,
2013-01-01 18:49:00,46.6,43.0,30.18,NNW,334,3.0,4.0,87,0.00,,,0.15,weatherlink.com 1.10,2013-01-02 00:49:00,
2013-01-01 19:04:00,46.3,43.0,30.18,NNW,347,3.0,6.0,87,0.00,,,0.15,weatherlink.com 1.10,2013-01-02 01:04:00,
2013-01-01 19:19:00,46.0,42.0,30.19,NNW,345,1.0,6.0,86,0.00,,,0.15,weatherlink.com 1.10,2013-01-02 01:19:00,
2013-01-01 19:34:00,45.9,42.0,30.19,NW,324,0.0,4.0,87,0.00,,,0.15,weatherlink.com 1.10,2013-01-02 01:34:00,
2013-01-01 19:49:00,45.8,42.0,30.20,NW,326,0.0,5.0,86,0.00,,,0.15,weatherlink.com 1.10,2013-01-02 01:49:00,
2013-01-01 20:04:00,45.8,42.0,30.21,NW,325,1.0,5.0,87,0.00,,,0.15,weatherlink.com 1.10,2013-01-02 02:04:00,
2013-01-01 20:19:00,45.6,42.0,30.20,NNW,330,3.0,7.0,86,0.00,,,0.15,weatherlink.com 1.10,2013-01-02 02:19:00,
2013-01-01 20:34:00,45.5,42.0,30.20,NNW,336,3.0,7.0,86,0.00,,,0.15,weatherlink.com 1.10,2013-01-02 02:34:00,
2013-01-01 20:49:00,45.4,42.0,30.20,NW,324,2.0,6.0,86,0.00,,,0.15,weatherlink.com 1.10,2013-01-02 02:49:00,
2013-01-01 21:04:00,45.2,42.0,30.21,NNW,342,3.0,4.0,87,0.00,,,0.15,weatherlink.com 1.10,2013-01-02 03:04:00,
2013-01-01 21:19:00,45.1,41.0,30.22,NNW,331,2.0,5.0,85,0.00,,,0.15,weatherlink.com 1.10,2013-01-02 03:19:00,
2013-01-01 21:34:00,44.9,41.0,30.22,NNW,331,0.0,4.0,85,0.00,,,0.15,weatherlink.com 1.10,2013-01-02 03:34:00,
2013-01-01 21:49:00,44.8,41.0,30.22,NW,323,2.0,4.0,85,0.00,,,0.15,weatherlink.com 1.10,2013-01-02 03:49:00,
2013-01-01 22:04:00,44.6,40.0,30.21,NNW,334,2.0,7.0,85,0.00,,,0.15,weatherlink.com 1.10,2013-01-02 04:04:00,
2013-01-01 22:19:00,44.5,40.0,30.22,NNW,338,3.0,7.0,83,0.00,,,0.15,weatherlink.com 1.10,2013-01-02 04:19:00,
2013-01-01 22:34:00,44.4,40.0,30.22,NNW,338,2.0,5.0,83,0.00,,,0.15,weatherlink.com 1.10,2013-01-02 04:34:00,
2013-01-01 22:49:00,44.3,40.0,30.23,NNW,336,0.0,5.0,84,0.00,,,0.15,weatherlink.com 1.10,2013-01-02 04:49:00,
2013-01-01 23:04:00,44.2,40.0,30.22,NNW,339,2.0,5.0,84,0.00,,,0.15,weatherlink.com 1.10,2013-01-02 05:04:00,
2013-01-01 23:19:00,44.1,40.0,30.22,NNW,336,3.0,5.0,84,0.00,,,0.15,weatherlink.com 1.10,2013-01-02 05:19:00,
2013-01-01 23:34:00,44.0,40.0,30.22,NNW,332,0.0,6.0,84,0.00,,,0.15,weatherlink.com 1.10,2013-01-02 05:34:00,
2013-01-01 23:49:00,43.8,39.0,30.22,NNW,344,2.0,4.0,83,0.00,,,0.15,weatherlink.com 1.10,2013-01-02 05:49:00,